createdAt,value
2023-05-21T00:00:36.697Z,17
2023-05-21T00:01:45.212Z,16.4
2023-05-21T00:02:53.580Z,16.4
2023-05-21T00:04:01.956Z,16.4
2023-05-21T00:05:12.312Z,16.6
2023-05-21T00:06:18.738Z,16.6
2023-05-21T00:07:27.049Z,16.6
2023-05-21T00:08:35.602Z,16
2023-05-21T00:09:43.940Z,16
2023-05-21T00:10:52.249Z,16
2023-05-21T00:12:00.803Z,16.299999
2023-05-21T00:13:09.170Z,16.299999
2023-05-21T00:14:17.445Z,16.299999
2023-05-21T00:15:25.986Z,15.6
2023-05-21T00:16:34.359Z,15.6
2023-05-21T00:17:42.667Z,15.6
2023-05-21T00:18:51.228Z,15.6
2023-05-21T00:19:59.531Z,15.6
2023-05-21T00:21:07.866Z,15.6
2023-05-21T00:22:16.386Z,14.5
2023-05-21T00:23:24.722Z,14.5
2023-05-21T00:24:33.022Z,14.5
2023-05-21T00:25:41.590Z,15.1
2023-05-21T00:26:49.906Z,15.1
2023-05-21T00:27:58.264Z,15.1
2023-05-21T00:29:06.770Z,15.6
2023-05-21T00:30:15.096Z,15.6
2023-05-21T00:31:23.476Z,15.6
2023-05-21T00:32:32.012Z,16.1
2023-05-21T00:33:40.272Z,16.1
2023-05-21T00:34:48.620Z,16.1
2023-05-21T00:35:57.143Z,16.4
2023-05-21T00:37:05.469Z,16.4
2023-05-21T00:38:13.792Z,16.4
2023-05-21T00:39:22.331Z,16.6
2023-05-21T00:40:30.673Z,16.6
2023-05-21T00:41:39.011Z,16.6
2023-05-21T00:42:47.536Z,15.5
2023-05-21T00:43:55.868Z,15.5
2023-05-21T00:45:04.198Z,15.5
2023-05-21T00:46:12.772Z,17
2023-05-21T00:47:21.211Z,17
2023-05-21T00:48:29.472Z,17
2023-05-21T00:49:38.000Z,16.799999
2023-05-21T00:50:46.325Z,16.799999
2023-05-21T00:51:54.649Z,16.799999
2023-05-21T00:53:03.182Z,16.4
2023-05-21T00:54:11.521Z,16.4
2023-05-21T00:55:19.888Z,16.4
2023-05-21T00:56:28.418Z,14.9
2023-05-21T00:57:36.759Z,14.9
2023-05-21T00:58:45.076Z,14.9
2023-05-21T00:59:53.631Z,15.5
2023-05-21T01:01:01.957Z,15.5
2023-05-21T01:02:10.282Z,15.5
2023-05-21T01:03:18.917Z,15.7
2023-05-21T01:04:27.165Z,15.7
2023-05-21T01:05:35.545Z,15.7
2023-05-21T01:06:43.978Z,15.6
2023-05-21T01:07:52.311Z,15.6
2023-05-21T01:09:00.681Z,15.6
2023-05-21T01:10:09.220Z,15.1
2023-05-21T01:11:17.547Z,15.1
2023-05-21T01:12:25.873Z,15.1
2023-05-21T01:13:34.431Z,15.3
2023-05-21T01:14:42.757Z,15.3
2023-05-21T01:15:51.075Z,15.3
2023-05-21T01:16:59.596Z,15.6
2023-05-21T01:18:07.940Z,15.6
2023-05-21T01:19:16.323Z,15.6
2023-05-21T01:20:24.826Z,15.8
2023-05-21T01:21:33.112Z,15.8
2023-05-21T01:22:41.457Z,15.8
2023-05-21T01:23:49.980Z,15.3
2023-05-21T01:24:58.338Z,15.3
2023-05-21T01:26:06.673Z,15.3
2023-05-21T01:27:15.215Z,16.1
2023-05-21T01:28:23.555Z,16.1
2023-05-21T01:29:31.901Z,16.1
2023-05-21T01:30:40.426Z,15.2
2023-05-21T01:31:48.758Z,15.2
2023-05-21T01:32:57.124Z,15.2
2023-05-21T01:34:05.688Z,15.1
2023-05-21T01:35:13.938Z,15.1
2023-05-21T01:36:24.554Z,15.1
2023-05-21T01:37:32.858Z,15.3
2023-05-21T01:38:41.208Z,15.3
2023-05-21T01:39:49.543Z,15.3
2023-05-21T01:40:58.065Z,15.8
2023-05-21T01:42:06.413Z,15.8
2023-05-21T01:43:14.731Z,15.8
2023-05-21T01:44:23.298Z,15.7
2023-05-21T01:45:31.617Z,15.7
2023-05-21T01:46:40.023Z,15.7
2023-05-21T01:47:48.540Z,16.5
2023-05-21T01:48:56.846Z,16.5
2023-05-21T01:50:05.151Z,16.5
2023-05-21T01:51:13.715Z,16.200001
2023-05-21T01:52:22.076Z,16.200001
2023-05-21T01:53:30.377Z,16.200001
2023-05-21T01:54:38.946Z,16.6
2023-05-21T01:55:47.274Z,16.6
2023-05-21T01:56:55.594Z,16.6
2023-05-21T01:58:04.144Z,16.1
2023-05-21T01:59:13.257Z,16.1
2023-05-21T02:00:21.605Z,16.1
2023-05-21T02:01:30.234Z,16.700001
2023-05-21T02:02:38.521Z,16.700001
2023-05-21T02:03:46.841Z,16.700001
2023-05-21T02:04:55.332Z,16.9
2023-05-21T02:06:03.668Z,16.9
2023-05-21T02:07:12.007Z,16.9
2023-05-21T02:08:20.595Z,17.1
2023-05-21T02:09:28.876Z,17.1
2023-05-21T02:10:37.204Z,17.1
2023-05-21T02:11:45.747Z,17.6
2023-05-21T02:12:54.078Z,17.6
2023-05-21T02:14:02.399Z,17.6
2023-05-21T02:15:10.933Z,17.6
2023-05-21T02:16:19.295Z,17.6
2023-05-21T02:17:27.586Z,17.6
2023-05-21T02:18:36.114Z,16
2023-05-21T02:19:44.446Z,16
2023-05-21T02:20:52.770Z,16
2023-05-21T02:22:01.309Z,17.6
2023-05-21T02:23:09.673Z,17.6
2023-05-21T02:24:18.008Z,17.6
2023-05-21T02:25:26.517Z,17.200001
2023-05-21T02:26:34.838Z,17.200001
2023-05-21T02:27:43.194Z,17.200001
2023-05-21T02:28:51.716Z,17.200001
2023-05-21T02:30:00.070Z,17.200001
2023-05-21T02:31:08.375Z,17.200001
2023-05-21T02:32:16.912Z,17.200001
2023-05-21T02:33:25.242Z,17.200001
2023-05-21T02:34:33.561Z,17.200001
2023-05-21T02:35:42.117Z,16.799999
2023-05-21T02:36:50.435Z,16.799999
2023-05-21T02:37:58.780Z,16.799999
2023-05-21T02:39:07.335Z,17.299999
2023-05-21T02:40:15.689Z,17.299999
2023-05-21T02:41:23.968Z,17.299999
2023-05-21T02:42:32.498Z,17.700001
2023-05-21T02:43:40.822Z,17.700001
2023-05-21T02:44:49.151Z,17.700001
2023-05-21T02:45:57.723Z,17.5
2023-05-21T02:47:06.016Z,17.5
2023-05-21T02:48:14.350Z,17.5
2023-05-21T02:49:22.871Z,17.6
2023-05-21T02:50:31.212Z,17.6
2023-05-21T02:51:39.546Z,17.6
2023-05-21T02:52:48.085Z,16.799999
2023-05-21T02:53:56.389Z,16.799999
2023-05-21T02:55:04.736Z,16.799999
2023-05-21T02:56:13.321Z,17.299999
2023-05-21T02:57:21.618Z,17.299999
2023-05-21T02:58:29.954Z,17.299999
2023-05-21T02:59:38.488Z,17.700001
2023-05-21T03:00:46.829Z,17.700001
2023-05-21T03:01:55.207Z,17.700001
2023-05-21T03:03:03.767Z,17.799999
2023-05-21T03:04:12.024Z,17.799999
2023-05-21T03:05:20.362Z,17.799999
2023-05-21T03:06:28.890Z,17.700001
2023-05-21T03:07:37.226Z,17.700001
2023-05-21T03:08:45.550Z,17.700001
2023-05-21T03:09:54.077Z,17.200001
2023-05-21T03:11:02.451Z,17.200001
2023-05-21T03:12:10.776Z,17.200001
2023-05-21T03:13:19.293Z,17.5
2023-05-21T03:14:27.624Z,17.5
2023-05-21T03:15:36.114Z,17.5
2023-05-21T03:16:44.510Z,17.200001
2023-05-21T03:17:52.852Z,17.200001
2023-05-21T03:19:01.177Z,17.200001
2023-05-21T03:20:09.684Z,16.6
2023-05-21T03:21:18.003Z,16.6
2023-05-21T03:22:26.325Z,16.6
2023-05-21T03:23:34.855Z,17.1
2023-05-21T03:24:43.191Z,17.1
2023-05-21T03:25:51.511Z,17.1
2023-05-21T03:27:00.123Z,17.700001
2023-05-21T03:28:08.421Z,17.700001
2023-05-21T03:29:16.725Z,17.700001
2023-05-21T03:30:25.253Z,17
2023-05-21T03:31:33.617Z,17
2023-05-21T03:32:41.968Z,17
2023-05-21T03:33:50.444Z,18
2023-05-21T03:34:58.780Z,18
2023-05-21T03:36:07.118Z,18
2023-05-21T03:37:15.650Z,17.299999
2023-05-21T03:38:25.417Z,17.299999
2023-05-21T03:39:33.769Z,17.299999
2023-05-21T03:40:42.297Z,17.700001
2023-05-21T03:41:50.658Z,17.700001
2023-05-21T03:42:58.968Z,17.700001
2023-05-21T03:44:07.545Z,16.299999
2023-05-21T03:45:15.831Z,16.299999
2023-05-21T03:46:24.198Z,16.299999
2023-05-21T03:47:32.741Z,18.5
2023-05-21T03:48:41.025Z,18.5
2023-05-21T03:49:49.376Z,18.5
2023-05-21T03:50:57.918Z,17.6
2023-05-21T03:52:06.254Z,17.6
2023-05-21T03:53:14.568Z,17.6
2023-05-21T03:54:23.128Z,17.700001
2023-05-21T03:55:31.431Z,17.700001
2023-05-21T03:56:39.750Z,17.700001
2023-05-21T03:57:48.279Z,18.1
2023-05-21T03:58:56.603Z,18.1
2023-05-21T04:00:04.969Z,18.1
2023-05-21T04:01:13.479Z,17.799999
2023-05-21T04:02:21.898Z,17.799999
2023-05-21T04:03:30.396Z,17.799999
2023-05-21T04:04:38.764Z,18.1
2023-05-21T04:05:47.028Z,18.1
2023-05-21T04:06:55.379Z,18.1
2023-05-21T04:08:03.908Z,17.700001
2023-05-21T04:09:12.237Z,17.700001
2023-05-21T04:10:20.562Z,17.700001
2023-05-21T04:11:29.083Z,18.9
2023-05-21T04:12:37.417Z,18.9
2023-05-21T04:13:45.774Z,18.9
2023-05-21T04:14:54.310Z,18.1
2023-05-21T04:16:02.706Z,18.1
2023-05-21T04:17:10.988Z,18.1
2023-05-21T04:18:19.506Z,18.9
2023-05-21T04:19:27.883Z,18.9
2023-05-21T04:20:36.205Z,18.9
2023-05-21T04:21:44.747Z,18.799999
2023-05-21T04:22:53.054Z,18.799999
2023-05-21T04:24:01.386Z,18.799999
2023-05-21T04:25:09.930Z,19.1
2023-05-21T04:26:18.258Z,19.1
2023-05-21T04:27:26.607Z,19.1
2023-05-21T04:28:35.120Z,19
2023-05-21T04:29:43.447Z,19
2023-05-21T04:30:51.871Z,19
2023-05-21T04:32:00.346Z,18.9
2023-05-21T04:33:08.639Z,18.9
2023-05-21T04:34:16.948Z,18.9
2023-05-21T04:35:25.509Z,18.700001
2023-05-21T04:36:33.894Z,18.700001
2023-05-21T04:37:42.207Z,18.700001
2023-05-21T04:38:50.720Z,18.299999
2023-05-21T04:39:59.057Z,18.299999
2023-05-21T04:41:07.415Z,18.299999
2023-05-21T04:42:15.924Z,19.4
2023-05-21T04:43:24.288Z,19.4
2023-05-21T04:44:32.611Z,19.4
2023-05-21T04:45:41.163Z,19.4
2023-05-21T04:46:49.491Z,19.4
2023-05-21T04:47:57.844Z,19.4
2023-05-21T04:49:06.356Z,18
2023-05-21T04:50:14.699Z,18
2023-05-21T04:51:23.007Z,18
2023-05-21T04:52:31.549Z,18.4
2023-05-21T04:53:39.884Z,18.4
2023-05-21T04:54:48.216Z,18.4
2023-05-21T04:55:56.749Z,16.5
2023-05-21T04:57:05.065Z,16.5
2023-05-21T04:58:13.384Z,16.5
2023-05-21T04:59:21.927Z,17.299999
2023-05-21T05:00:30.417Z,17.299999
2023-05-21T05:01:38.666Z,17.299999
2023-05-21T05:02:47.165Z,16.4
2023-05-21T05:03:55.494Z,16.4
2023-05-21T05:05:03.771Z,16.4
2023-05-21T05:06:12.324Z,18.299999
2023-05-21T05:07:20.650Z,18.299999
2023-05-21T05:08:28.984Z,18.299999
2023-05-21T05:09:37.511Z,17.5
2023-05-21T05:10:45.848Z,17.5
2023-05-21T05:11:54.149Z,17.5
2023-05-21T05:13:02.710Z,17.4
2023-05-21T05:14:11.037Z,17.4
2023-05-21T05:15:19.376Z,17.4
2023-05-21T05:16:27.973Z,17
2023-05-21T05:17:36.281Z,17
2023-05-21T05:18:44.586Z,17
2023-05-21T05:19:53.157Z,16.799999
2023-05-21T05:21:01.456Z,16.799999
2023-05-21T05:22:11.241Z,16.799999
2023-05-21T05:23:18.338Z,16.799999
2023-05-21T05:24:26.671Z,16.799999
2023-05-21T05:25:35.183Z,16.799999
2023-05-21T05:26:43.621Z,17.4
2023-05-21T05:27:51.951Z,17.4
2023-05-21T05:29:00.336Z,17.4
2023-05-21T05:30:08.834Z,16.1
2023-05-21T05:31:17.184Z,16.1
2023-05-21T05:32:25.506Z,16.1
2023-05-21T05:33:34.029Z,16.4
2023-05-21T05:34:42.365Z,16.4
2023-05-21T05:35:50.730Z,16.4
2023-05-21T05:36:59.247Z,16.6
2023-05-21T05:38:07.582Z,16.6
2023-05-21T05:39:15.897Z,16.6
2023-05-21T05:40:24.464Z,16.9
2023-05-21T05:41:32.798Z,16.9
2023-05-21T05:42:41.214Z,16.9
2023-05-21T05:43:49.747Z,16.5
2023-05-21T05:44:58.072Z,16.5
2023-05-21T05:46:06.413Z,16.5
2023-05-21T05:47:14.931Z,17
2023-05-21T05:48:23.258Z,17
2023-05-21T05:49:31.592Z,17
2023-05-21T05:50:40.120Z,16.799999
2023-05-21T05:51:48.459Z,16.799999
2023-05-21T05:52:56.777Z,16.799999
2023-05-21T05:54:05.301Z,16.200001
2023-05-21T05:55:13.636Z,16.200001
2023-05-21T05:56:21.983Z,16.200001
2023-05-21T05:57:30.532Z,16.9
2023-05-21T05:58:38.889Z,16.9
2023-05-21T05:59:47.204Z,16.9
2023-05-21T06:00:55.739Z,17
2023-05-21T06:02:04.064Z,17
2023-05-21T06:03:12.494Z,17
2023-05-21T06:04:20.905Z,15.9
2023-05-21T06:05:29.274Z,15.9
2023-05-21T06:06:37.541Z,15.9
2023-05-21T06:07:46.103Z,16.799999
2023-05-21T06:08:54.393Z,16.799999
2023-05-21T06:10:02.753Z,16.799999
2023-05-21T06:11:11.268Z,15.9
2023-05-21T06:12:19.590Z,15.9
2023-05-21T06:13:27.909Z,15.9
2023-05-21T06:14:36.467Z,16.4
2023-05-21T06:15:44.808Z,16.4
2023-05-21T06:16:53.106Z,16.4
2023-05-21T06:18:01.708Z,16.4
2023-05-21T06:19:10.047Z,16.4
2023-05-21T06:20:18.328Z,16.4
2023-05-21T06:21:26.893Z,15.8
2023-05-21T06:22:35.250Z,15.8
2023-05-21T06:23:43.598Z,15.8
2023-05-21T06:24:52.095Z,17.4
2023-05-21T06:26:00.464Z,17.4
2023-05-21T06:27:08.777Z,17.4
2023-05-21T06:28:17.337Z,16.799999
2023-05-21T06:29:25.654Z,16.799999
2023-05-21T06:30:33.972Z,16.799999
2023-05-21T06:31:42.510Z,17.4
2023-05-21T06:32:50.938Z,17.4
2023-05-21T06:33:59.383Z,17.4
2023-05-21T06:35:07.727Z,16.6
2023-05-21T06:36:16.053Z,16.6
2023-05-21T06:37:26.508Z,16.6
2023-05-21T06:38:32.935Z,16.799999
2023-05-21T06:39:41.273Z,16.799999
2023-05-21T06:40:49.579Z,16.799999
2023-05-21T06:41:58.114Z,16.9
2023-05-21T06:43:06.461Z,16.9
2023-05-21T06:44:14.771Z,16.9
2023-05-21T06:45:23.290Z,16.4
2023-05-21T06:46:31.647Z,16.4
2023-05-21T06:47:40.082Z,16.4
2023-05-21T06:48:48.505Z,17
2023-05-21T06:49:56.845Z,17
2023-05-21T06:51:05.180Z,17
2023-05-21T06:52:13.725Z,16.9
2023-05-21T06:53:22.072Z,16.9
2023-05-21T06:54:30.416Z,16.9
2023-05-21T06:55:39.194Z,16.1
2023-05-21T06:56:47.302Z,16.1
2023-05-21T06:57:55.633Z,16.1
2023-05-21T06:59:04.166Z,16.200001
2023-05-21T07:00:12.517Z,16.200001
2023-05-21T07:01:20.830Z,16.200001
2023-05-21T07:02:29.403Z,17.4
2023-05-21T07:03:37.788Z,17.4
2023-05-21T07:04:45.998Z,17.4
2023-05-21T07:05:54.590Z,17.200001
2023-05-21T07:07:02.924Z,17.200001
2023-05-21T07:08:12.112Z,17.200001
2023-05-21T07:09:19.799Z,16.799999
2023-05-21T07:10:28.139Z,16.799999
2023-05-21T07:11:36.478Z,16.799999
2023-05-21T07:12:44.992Z,15.9
2023-05-21T07:13:53.310Z,15.9
2023-05-21T07:15:01.650Z,15.9
2023-05-21T07:16:10.291Z,16.299999
2023-05-21T07:17:18.519Z,16.299999
2023-05-21T07:18:26.858Z,16.299999
2023-05-21T07:19:35.403Z,15.5
2023-05-21T07:20:43.753Z,15.5
2023-05-21T07:21:52.068Z,15.5
2023-05-21T07:23:00.624Z,15.2
2023-05-21T07:24:08.930Z,15.2
2023-05-21T07:25:18.021Z,15.2
2023-05-21T07:26:26.563Z,16.799999
2023-05-21T07:27:34.924Z,16.799999
2023-05-21T07:28:43.230Z,16.799999
2023-05-21T07:29:51.766Z,14.7
2023-05-21T07:31:00.121Z,14.7
2023-05-21T07:32:08.438Z,14.7
2023-05-21T07:33:16.966Z,15.4
2023-05-21T07:34:25.307Z,15.4
2023-05-21T07:35:33.653Z,15.4
2023-05-21T07:36:42.144Z,15.5
2023-05-21T07:37:50.491Z,15.5
2023-05-21T07:38:58.802Z,15.5
2023-05-21T07:40:07.355Z,14.6
2023-05-21T07:41:17.925Z,14.6
2023-05-21T07:42:24.007Z,14.6
2023-05-21T07:43:32.567Z,14.1
2023-05-21T07:44:40.898Z,14.1
2023-05-21T07:45:49.234Z,14.1
2023-05-21T07:46:57.772Z,14.2
2023-05-21T07:48:06.155Z,14.2
2023-05-21T07:49:14.439Z,14.2
2023-05-21T07:50:22.970Z,13.2
2023-05-21T07:51:31.336Z,13.2
2023-05-21T07:52:39.670Z,13.2
2023-05-21T07:53:48.206Z,13.6
2023-05-21T07:54:56.521Z,13.6
2023-05-21T07:56:04.851Z,13.6
2023-05-21T07:57:13.385Z,13.7
2023-05-21T07:58:21.744Z,13.7
2023-05-21T07:59:30.106Z,13.7
2023-05-21T08:00:38.625Z,12.8
2023-05-21T08:01:46.971Z,12.8
2023-05-21T08:02:55.383Z,12.8
2023-05-21T08:04:04.032Z,12.6
2023-05-21T08:05:12.216Z,12.6
2023-05-21T08:06:20.509Z,12.6
2023-05-21T08:07:29.042Z,12.6
2023-05-21T08:08:37.407Z,12.6
2023-05-21T08:09:45.750Z,12.6
2023-05-21T08:10:54.291Z,12.9
2023-05-21T08:12:02.643Z,12.9
2023-05-21T08:13:10.974Z,12.9
2023-05-21T08:14:19.486Z,12.5
2023-05-21T08:15:27.849Z,12.5
2023-05-21T08:16:36.212Z,12.5
2023-05-21T08:17:44.727Z,11.9
2023-05-21T08:18:53.079Z,11.9
2023-05-21T08:20:01.363Z,11.9
2023-05-21T08:21:09.901Z,12.1
2023-05-21T08:22:18.261Z,12.1
2023-05-21T08:23:27.115Z,12.1
2023-05-21T08:24:35.663Z,12.9
2023-05-21T08:25:43.979Z,12.9
2023-05-21T08:26:52.330Z,12.9
2023-05-21T08:28:00.862Z,13.2
2023-05-21T08:29:09.182Z,13.2
2023-05-21T08:30:17.505Z,13.2
2023-05-21T08:31:26.124Z,12.2
2023-05-21T08:32:34.451Z,12.2
2023-05-21T08:33:42.793Z,12.2
2023-05-21T08:34:51.313Z,12.7
2023-05-21T08:35:59.656Z,12.7
2023-05-21T08:37:07.997Z,12.7
2023-05-21T08:38:16.532Z,12.6
2023-05-21T08:39:24.847Z,12.6
2023-05-21T08:40:33.186Z,12.6
2023-05-21T08:41:41.721Z,12.2
2023-05-21T08:42:50.053Z,12.2
2023-05-21T08:43:58.382Z,12.2
2023-05-21T08:45:06.935Z,12
2023-05-21T08:46:15.297Z,12
2023-05-21T08:47:23.583Z,12
2023-05-21T08:48:32.099Z,12.8
2023-05-21T08:49:40.442Z,12.8
2023-05-21T08:50:48.786Z,12.8
2023-05-21T08:51:57.341Z,12.8
2023-05-21T08:53:12.656Z,12.8
2023-05-21T08:54:14.020Z,12.8
2023-05-21T08:55:22.565Z,11.9
2023-05-21T08:56:30.905Z,11.9
2023-05-21T08:57:39.232Z,11.9
2023-05-21T08:58:47.806Z,11.7
2023-05-21T08:59:56.132Z,11.7
2023-05-21T09:01:04.504Z,11.7
2023-05-21T09:02:13.037Z,11.8
2023-05-21T09:03:21.442Z,11.8
2023-05-21T09:04:29.777Z,11.8
2023-05-21T09:05:38.388Z,12.1
2023-05-21T09:06:46.626Z,12.1
2023-05-21T09:07:54.978Z,12.1
2023-05-21T09:09:03.508Z,11.5
2023-05-21T09:10:11.840Z,11.5
2023-05-21T09:11:20.152Z,11.5
2023-05-21T09:12:28.677Z,11.4
2023-05-21T09:13:38.800Z,11.4
2023-05-21T09:14:45.358Z,11.4
2023-05-21T09:15:53.889Z,11.4
2023-05-21T09:17:02.294Z,11.4
2023-05-21T09:18:10.590Z,11.4
2023-05-21T09:19:19.156Z,12.1
2023-05-21T09:20:27.446Z,12.1
2023-05-21T09:21:35.772Z,12.1
2023-05-21T09:22:44.307Z,11.4
2023-05-21T09:23:52.660Z,11.4
2023-05-21T09:25:00.981Z,11.4
2023-05-21T09:26:09.520Z,11.7
2023-05-21T09:27:17.846Z,11.7
2023-05-21T09:28:26.168Z,11.7
2023-05-21T09:29:34.745Z,11.5
2023-05-21T09:30:43.044Z,11.5
2023-05-21T09:31:51.464Z,11.5
2023-05-21T09:33:00.048Z,10.6
2023-05-21T09:34:08.276Z,10.6
2023-05-21T09:35:16.699Z,10.6
2023-05-21T09:36:25.164Z,11.5
2023-05-21T09:37:33.492Z,11.5
2023-05-21T09:38:41.828Z,11.5
2023-05-21T09:39:50.379Z,10.8
2023-05-21T09:40:58.713Z,10.8
2023-05-21T09:42:07.051Z,10.8
2023-05-21T09:43:15.610Z,10.5
2023-05-21T09:44:23.918Z,10.5
2023-05-21T09:45:32.247Z,10.5
2023-05-21T09:46:41.128Z,11.2
2023-05-21T09:47:49.178Z,11.2
2023-05-21T09:48:57.508Z,11.2
2023-05-21T09:50:06.039Z,10.9
2023-05-21T09:51:14.426Z,10.9
2023-05-21T09:52:22.694Z,10.9
2023-05-21T09:53:31.234Z,10.6
2023-05-21T09:54:39.555Z,10.6
2023-05-21T09:55:47.875Z,10.6
2023-05-21T09:56:56.418Z,10.3
2023-05-21T09:58:04.747Z,10.3
2023-05-21T09:59:13.065Z,10.3
2023-05-21T10:00:21.608Z,11.2
2023-05-21T10:01:29.979Z,11.2
2023-05-21T10:02:38.334Z,11.2
2023-05-21T10:03:48.137Z,10.9
2023-05-21T10:04:55.246Z,10.9
2023-05-21T10:06:03.537Z,10.9
2023-05-21T10:07:12.097Z,10.7
2023-05-21T10:08:20.368Z,10.7
2023-05-21T10:09:28.737Z,10.7
2023-05-21T10:10:37.335Z,10.4
2023-05-21T10:11:45.582Z,10.4
2023-05-21T10:12:53.931Z,10.4
2023-05-21T10:14:02.474Z,10.8
2023-05-21T10:15:10.807Z,10.8
2023-05-21T10:16:19.151Z,10.8
2023-05-21T10:17:27.672Z,10.7
2023-05-21T10:18:35.992Z,10.7
2023-05-21T10:19:44.318Z,10.7
2023-05-21T10:20:52.898Z,10.9
2023-05-21T10:22:01.211Z,10.9
2023-05-21T10:23:09.583Z,10.9
2023-05-21T10:24:18.091Z,11.2
2023-05-21T10:25:26.415Z,11.2
2023-05-21T10:26:34.724Z,11.2
2023-05-21T10:27:43.264Z,10
2023-05-21T10:28:51.625Z,10
2023-05-21T10:29:59.975Z,10
2023-05-21T10:31:08.518Z,10.4
2023-05-21T10:32:16.862Z,10.4
2023-05-21T10:33:25.204Z,10.4
2023-05-21T10:34:33.693Z,11.1
2023-05-21T10:35:42.020Z,11.1
2023-05-21T10:36:50.401Z,11.1
2023-05-21T10:37:58.925Z,10.5
2023-05-21T10:39:07.263Z,10.5
2023-05-21T10:40:15.643Z,10.5
2023-05-21T10:41:24.178Z,9.6
2023-05-21T10:42:32.505Z,9.6
2023-05-21T10:43:40.836Z,9.6
2023-05-21T10:44:49.381Z,10
2023-05-21T10:45:57.744Z,10
2023-05-21T10:47:06.022Z,10
2023-05-21T10:48:14.609Z,10.4
2023-05-21T10:49:22.932Z,10.4
2023-05-21T10:50:31.232Z,10.4
2023-05-21T10:51:39.781Z,10.7
2023-05-21T10:52:48.113Z,10.7
2023-05-21T10:53:56.423Z,10.7
2023-05-21T10:55:04.993Z,9.5
2023-05-21T10:56:13.309Z,9.5
2023-05-21T10:57:21.635Z,9.5
2023-05-21T10:58:30.305Z,9.9
2023-05-21T10:59:38.538Z,9.9
2023-05-21T11:00:46.859Z,9.9
2023-05-21T11:01:55.397Z,10.2
2023-05-21T11:03:03.857Z,10.2
2023-05-21T11:04:12.085Z,10.2
2023-05-21T11:05:20.646Z,10.3
2023-05-21T11:06:28.985Z,10.3
2023-05-21T11:07:37.299Z,10.3
2023-05-21T11:08:45.852Z,10.4
2023-05-21T11:09:54.160Z,10.4
2023-05-21T11:11:02.520Z,10.4
2023-05-21T11:12:11.023Z,9.8
2023-05-21T11:13:19.384Z,9.8
2023-05-21T11:14:27.697Z,9.8
2023-05-21T11:15:36.262Z,10.2
2023-05-21T11:16:44.597Z,10.2
2023-05-21T11:17:52.905Z,10.2
2023-05-21T11:19:01.516Z,9.7
2023-05-21T11:20:09.783Z,9.7
2023-05-21T11:21:18.132Z,9.7
2023-05-21T11:22:26.681Z,9.3
2023-05-21T11:23:34.986Z,9.3
2023-05-21T11:24:43.332Z,9.3
2023-05-21T11:25:51.841Z,9.6
2023-05-21T11:27:00.203Z,9.6
2023-05-21T11:28:08.494Z,9.6
2023-05-21T11:29:17.033Z,9.8
2023-05-21T11:30:25.384Z,9.8
2023-05-21T11:31:33.720Z,9.8
2023-05-21T11:32:42.292Z,9
2023-05-21T11:33:50.577Z,9
2023-05-21T11:34:58.908Z,9
2023-05-21T11:36:07.446Z,9.5
2023-05-21T11:37:15.783Z,9.5
2023-05-21T11:38:24.124Z,9.5
2023-05-21T11:39:32.662Z,9.9
2023-05-21T11:40:41.026Z,9.9
2023-05-21T11:41:49.346Z,9.9
2023-05-21T11:42:57.917Z,10.3
2023-05-21T11:44:06.229Z,10.3
2023-05-21T11:45:14.581Z,10.3
2023-05-21T11:46:23.120Z,8.6
2023-05-21T11:47:31.461Z,8.6
2023-05-21T11:48:39.745Z,8.6
2023-05-21T11:49:48.286Z,9.6
2023-05-21T11:50:56.605Z,9.6
2023-05-21T11:52:04.935Z,9.6
2023-05-21T11:53:13.491Z,10
2023-05-21T11:54:21.834Z,10
2023-05-21T11:55:30.177Z,10
2023-05-21T11:56:38.726Z,9.5
2023-05-21T11:57:47.055Z,9.5
2023-05-21T11:58:55.504Z,9.5
2023-05-21T12:00:03.925Z,8.8
2023-05-21T12:01:12.274Z,8.8
2023-05-21T12:02:20.650Z,8.8
2023-05-21T12:03:29.244Z,9.3
2023-05-21T12:04:37.510Z,9.3
2023-05-21T12:05:45.885Z,9.3
2023-05-21T12:06:54.522Z,8.9
2023-05-21T12:08:02.846Z,8.9
2023-05-21T12:09:11.212Z,8.9
2023-05-21T12:10:19.766Z,9
2023-05-21T12:11:28.098Z,9
2023-05-21T12:12:50.438Z,9
2023-05-21T12:13:45.060Z,8.5
2023-05-21T12:14:53.374Z,8.5
2023-05-21T12:16:01.712Z,8.5
2023-05-21T12:17:10.240Z,8.4
2023-05-21T12:18:18.601Z,8.4
2023-05-21T12:19:26.984Z,8.4
2023-05-21T12:20:35.659Z,8.9
2023-05-21T12:21:43.822Z,8.9
2023-05-21T12:22:52.147Z,8.9
2023-05-21T12:24:00.691Z,9.4
2023-05-21T12:25:09.012Z,9.4
2023-05-21T12:26:17.338Z,9.4
2023-05-21T12:27:25.933Z,9.8
2023-05-21T12:28:34.264Z,9.8
2023-05-21T12:29:42.664Z,9.8
2023-05-21T12:30:51.269Z,9.2
2023-05-21T12:31:59.509Z,9.2
2023-05-21T12:33:07.832Z,9.2
2023-05-21T12:34:16.353Z,8.5
2023-05-21T12:35:24.934Z,8.5
2023-05-21T12:36:33.039Z,8.5
2023-05-21T12:37:41.605Z,9.1
2023-05-21T12:38:49.932Z,9.1
2023-05-21T12:39:58.273Z,9.1
2023-05-21T12:41:06.843Z,8.9
2023-05-21T12:42:15.141Z,8.9
2023-05-21T12:43:23.485Z,8.9
2023-05-21T12:44:32.011Z,8.3
2023-05-21T12:45:40.544Z,8.3
2023-05-21T12:46:48.815Z,8.3
2023-05-21T12:47:57.230Z,9.1
2023-05-21T12:49:05.567Z,9.1
2023-05-21T12:50:14.115Z,9.1
2023-05-21T12:51:22.450Z,9.5
2023-05-21T12:52:30.787Z,9.5
2023-05-21T12:53:39.112Z,9.5
2023-05-21T12:54:47.683Z,8.8
2023-05-21T12:55:56.007Z,8.8
2023-05-21T12:57:04.350Z,8.8
2023-05-21T12:58:12.891Z,9.4
2023-05-21T12:59:21.230Z,9.4
2023-05-21T13:00:29.581Z,9.4
2023-05-21T13:01:38.131Z,9
2023-05-21T13:02:46.531Z,9
2023-05-21T13:03:54.834Z,9
2023-05-21T13:05:03.368Z,9.4
2023-05-21T13:06:11.745Z,9.4
2023-05-21T13:07:20.087Z,9.4
2023-05-21T13:08:28.615Z,8.6
2023-05-21T13:09:36.941Z,8.6
2023-05-21T13:10:45.300Z,8.6
2023-05-21T13:11:53.850Z,8.7
2023-05-21T13:13:02.187Z,8.7
2023-05-21T13:14:10.522Z,8.7
2023-05-21T13:15:19.085Z,8.6
2023-05-21T13:16:27.469Z,8.6
2023-05-21T13:17:35.808Z,8.6
2023-05-21T13:18:44.493Z,9.2
2023-05-21T13:19:52.721Z,9.2
2023-05-21T13:21:01.051Z,9.2
2023-05-21T13:22:09.577Z,8.9
2023-05-21T13:23:17.930Z,8.9
2023-05-21T13:24:26.277Z,8.9
2023-05-21T13:25:34.838Z,9.1
2023-05-21T13:26:43.154Z,9.1
2023-05-21T13:27:51.476Z,9.1
2023-05-21T13:29:00.084Z,8.8
2023-05-21T13:30:08.442Z,8.8
2023-05-21T13:31:16.747Z,8.8
2023-05-21T13:32:25.343Z,9.3
2023-05-21T13:33:33.789Z,9.3
2023-05-21T13:34:42.086Z,9.3
2023-05-21T13:35:50.635Z,9
2023-05-21T13:36:58.967Z,9
2023-05-21T13:38:07.319Z,9
2023-05-21T13:39:15.884Z,9.2
2023-05-21T13:40:24.230Z,9.2
2023-05-21T13:41:32.561Z,9.2
2023-05-21T13:42:41.139Z,8.8
2023-05-21T13:43:49.466Z,8.8
2023-05-21T13:44:57.789Z,8.8
2023-05-21T13:46:06.372Z,9.3
2023-05-21T13:47:14.715Z,9.3
2023-05-21T13:48:23.134Z,9.3
2023-05-21T13:49:31.675Z,8.5
2023-05-21T13:50:40.034Z,8.5
2023-05-21T13:51:48.332Z,8.5
2023-05-21T13:52:56.882Z,8.8
2023-05-21T13:54:05.255Z,8.8
2023-05-21T13:55:13.584Z,8.8
2023-05-21T13:56:22.125Z,8.5
2023-05-21T13:57:30.486Z,8.5
2023-05-21T13:58:38.844Z,8.5
2023-05-21T13:59:47.404Z,8.7
2023-05-21T14:00:55.809Z,8.7
2023-05-21T14:02:04.156Z,8.7
2023-05-21T14:03:12.707Z,8.4
2023-05-21T14:04:21.022Z,8.4
2023-05-21T14:05:29.374Z,8.4
2023-05-21T14:06:37.939Z,8.3
2023-05-21T14:07:46.245Z,8.3
2023-05-21T14:08:54.602Z,8.3
2023-05-21T14:10:03.158Z,8.4
2023-05-21T14:11:11.489Z,8.4
2023-05-21T14:12:19.859Z,8.4
2023-05-21T14:13:28.400Z,8.4
2023-05-21T14:14:36.736Z,8.4
2023-05-21T14:15:45.121Z,8.4
2023-05-21T14:16:53.690Z,8.1
2023-05-21T14:18:02.082Z,8.1
2023-05-21T14:19:10.334Z,8.1
2023-05-21T14:20:18.870Z,8.5
2023-05-21T14:21:27.220Z,8.5
2023-05-21T14:22:35.615Z,8.5
2023-05-21T14:23:44.140Z,8.3
2023-05-21T14:24:52.479Z,8.3
2023-05-21T14:26:00.799Z,8.3
2023-05-21T14:27:09.380Z,7.8
2023-05-21T14:28:17.753Z,7.8
2023-05-21T14:29:26.112Z,7.8
2023-05-21T14:30:34.659Z,8
2023-05-21T14:31:43.017Z,8
2023-05-21T14:32:51.396Z,8
2023-05-21T14:33:59.898Z,7.7
2023-05-21T14:35:08.264Z,7.7
2023-05-21T14:36:16.576Z,7.7
2023-05-21T14:37:25.140Z,7.4
2023-05-21T14:38:33.509Z,7.4
2023-05-21T14:39:41.849Z,7.4
2023-05-21T14:40:50.400Z,7.2
2023-05-21T14:41:58.745Z,7.2
2023-05-21T14:43:07.101Z,7.2
2023-05-21T14:44:15.638Z,6.9
2023-05-21T14:45:23.997Z,6.9
2023-05-21T14:46:32.537Z,6.9
2023-05-21T14:47:40.877Z,7.1
2023-05-21T14:48:49.220Z,7.1
2023-05-21T14:49:57.535Z,7.1
2023-05-21T14:51:06.098Z,7.6
2023-05-21T14:52:14.435Z,7.6
2023-05-21T14:53:22.779Z,7.6
2023-05-21T14:54:31.394Z,7
2023-05-21T14:55:39.807Z,7
2023-05-21T14:56:48.046Z,7
2023-05-21T14:57:56.589Z,6.7
2023-05-21T14:59:04.920Z,6.7